Terminal Aerodrome Forecast
Issued by NWS Northern Indiana

Home | Current Version | Previous Version | Graphics & Text | Print | Product List | Glossary On
Versions: 1 2 3 4 5 6 7 8 9 10 11 12 13 14 15 16 17 18
000
FTUS43 KIWX 060520
TAFFWA
TAF
KFWA 060520Z 0606/0706 08006KT P6SM BKN250
     FM061200 07006KT P6SM OVC150
     FM061600 05005KT 5SM BR VCSH OVC025
     FM061900 28008KT P6SM OVC015=

USA.gov is the U.S. government's official web portal to all federal, state and local government web resources and services.